Station Historical Data
Daily Summary for May 19, 2017 Units:  Metric    English   Both
« Previous Day
Next Day »
Daily Weekly Monthly Yearly Custom
  High: Low: Average:
Temperature: 30.9 °C 21.2 °C 25.2 °C
Dew Point: 20.9 °C 17.7 °C 19 °C
Humidity: 88% 50% 70%
Wind Speed: 0km/h 0km/h 0km/h
Wind Gust: 4.8km/h - -
Wind- -
Pressure: 1019.9 hPa 1015.8 hPa -
Precipitation: 0 mm    
Historical Graphs
 
 
Tabular Data for May 19, 2017
Time Temperature Dew Point Pressure Wind Wind Speed Wind Gust Humidity Rainfall Rate (Hourly) solar Conditions
00:00 22.6 °C 19.9 °C 1017.2 hPa Calm     85% 0 mm WeatherDisplay:10.37 W/m2 SCT
00:15 22.6 °C 19.9 °C 1017.2 hPa Calm     85% 0 mm WeatherDisplay:10.37 W/m2 SCT
00:30 22.5 °C 19.8 °C 1017.5 hPa Calm     85% 0 mm WeatherDisplay:10.37 W/m2 SCT
00:45 22.4 °C 19.7 °C 1017.2 hPa Calm     85% 0 mm WeatherDisplay:10.37 W/m2 SCT
01:00 22.3 °C 19.9 °C 1017.2 hPa Calm     86% 0 mm WeatherDisplay:10.37 W/m2 SCT
01:15 22.2 °C 19.8 °C 1017.2 hPa Calm     86% 0 mm WeatherDisplay:10.37 W/m2 SCT
01:30 22.2 °C 19.7 °C 1017.2 hPa Calm     86% 0 mm WeatherDisplay:10.37 W/m2 SCT
01:45 21.9 °C 19.7 °C 1017.2 hPa Calm     87% 0 mm WeatherDisplay:10.37 W/m2 SCT
02:00 21.9 °C 19.8 °C 1017.2 hPa Calm     88% 0 mm WeatherDisplay:10.37 W/m2 SCT
02:15 21.8 °C 19.6 °C 1017.2 hPa Calm     87% 0 mm WeatherDisplay:10.37 W/m2 SCT
02:30 21.7 °C 19.4 °C 1017.5 hPa Calm     87% 0 mm WeatherDisplay:10.37 W/m2 SCT
02:45 21.6 °C 19.3 °C 1017.5 hPa Calm     87% 0 mm WeatherDisplay:10.37 W/m2 SCT
03:00 21.6 °C 19.3 °C 1017.5 hPa Calm     87% 0 mm WeatherDisplay:10.37 W/m2 SCT
03:15 21.6 °C 19.3 °C 1017.5 hPa Calm     87% 0 mm WeatherDisplay:10.37 W/m2 SCT
03:30 21.6 °C 19.2 °C 1017.5 hPa Calm     86% 0 mm WeatherDisplay:10.37 W/m2 SCT
03:45 21.2 °C 18 °C 1017.5 hPa Calm     82% 0 mm WeatherDisplay:10.37 W/m2 SCT
04:00 21.2 °C 18 °C 1017.8 hPa Calm     82% 0 mm WeatherDisplay:10.37 W/m2 SCT
04:15 21.2 °C 18 °C 1018.2 hPa Calm     82% 0 mm WeatherDisplay:10.37 W/m2 SCT
04:30 21.2 °C 18 °C 1018.2 hPa Calm     82% 0 mm WeatherDisplay:10.37 W/m2 SCT
04:45 21.2 °C 18 °C 1018.2 hPa Calm     82% 0 mm WeatherDisplay:10.37 W/m2 SCT
05:00 21.2 °C 18 °C 1018.2 hPa Calm     82% 0 mm WeatherDisplay:10.37 W/m2 SCT
05:15 21.2 °C 18 °C 1018.5 hPa Calm     82% 0 mm WeatherDisplay:10.37 W/m2 SCT
05:30 21.2 °C 18 °C 1018.8 hPa Calm     82% 0 mm WeatherDisplay:10.37 W/m2 SCT
05:45 21.2 °C 18 °C 1018.8 hPa Calm     82% 0 mm WeatherDisplay:10.37 W/m2 SCT
06:00 21.2 °C 18 °C 1018.8 hPa Calm     82% 0 mm WeatherDisplay:10.37 W/m2 SCT
06:15 21.2 °C 18 °C 1019.2 hPa Calm     82% 0 mm WeatherDisplay:10.37 W/m2 SCT
06:30 21.2 °C 18 °C 1019.5 hPa Calm     82% 0 mm WeatherDisplay:10.37 W/m2 SCT
06:45 21.2 °C 18 °C 1019.5 hPa Calm     82% 0 mm WeatherDisplay:10.37 W/m2 SCT
07:00 21.2 °C 18 °C 1019.5 hPa Calm     82% 0 mm WeatherDisplay:10.37 W/m2 SCT
07:15 21.2 °C 18 °C 1019.9 hPa Calm     82% 0 mm WeatherDisplay:10.37 W/m2 SCT
07:30 21.2 °C 18 °C 1019.9 hPa Calm     82% 0 mm WeatherDisplay:10.37 W/m2 SCT
07:45 21.2 °C 18 °C 1019.9 hPa Calm     82% 0 mm WeatherDisplay:10.37 W/m2 SCT
08:00 21.2 °C 18 °C 1019.9 hPa Calm     82% 0 mm WeatherDisplay:10.37 W/m2 SCT
08:15 21.2 °C 18 °C 1019.9 hPa Calm     82% 0 mm WeatherDisplay:10.37 W/m2 SCT
08:30 21.7 °C 17.7 °C 1019.9 hPa Calm     78% 0 mm WeatherDisplay:10.37 W/m2 SCT
08:45 22 °C 17.8 °C 1019.9 hPa Calm     77% 0 mm WeatherDisplay:10.37 W/m2 SCT
09:00 22.3 °C 18.1 °C 1019.5 hPa Calm   1.6 km/h 77% 0 mm WeatherDisplay:10.37 W/m2 SCT
09:15 22.8 °C 18 °C 1019.2 hPa Calm     74% 0 mm WeatherDisplay:10.37 W/m2 SCT
09:30 23.4 °C 17.7 °C 1019.9 hPa Calm   1.6 km/h 70% 0 mm WeatherDisplay:10.37 W/m2 SCT
09:45 24.1 °C 18.3 °C 1019.5 hPa Calm   1.6 km/h 70% 0 mm WeatherDisplay:10.37 W/m2 SCT
10:00 24.9 °C 18.2 °C 1019.5 hPa Calm   1.6 km/h 66% 0 mm WeatherDisplay:10.37 W/m2 SCT
10:15 25.9 °C 18.6 °C 1019.5 hPa Calm   1.6 km/h 64% 0 mm WeatherDisplay:10.37 W/m2 SCT
10:30 26.7 °C 18.8 °C 1019.5 hPa Calm   1.6 km/h 62% 0 mm WeatherDisplay:10.37 W/m2 SCT
10:45 26.8 °C 18.7 °C 1019.5 hPa Calm   1.6 km/h 61% 0 mm WeatherDisplay:10.37 W/m2 SCT
11:00 27.1 °C 18.7 °C 1019.5 hPa Calm   1.6 km/h 60% 0 mm WeatherDisplay:10.37 W/m2 SCT
11:15 27.3 °C 18.6 °C 1019.5 hPa Calm   1.6 km/h 59% 0 mm WeatherDisplay:10.37 W/m2 SCT
11:30 27.2 °C 18.5 °C 1019.5 hPa Calm   3.2 km/h 59% 0 mm WeatherDisplay:10.37 W/m2 SCT
11:45 27.3 °C 18.9 °C 1019.5 hPa Calm   3.2 km/h 60% 0 mm WeatherDisplay:10.37 W/m2 SCT
12:00 27.7 °C 19 °C 1019.2 hPa Calm   1.6 km/h 59% 0 mm WeatherDisplay:10.37 W/m2 SCT
12:15 28.7 °C 19.9 °C 1018.8 hPa Calm   1.6 km/h 59% 0 mm WeatherDisplay:10.37 W/m2 SCT
12:30 29.2 °C 19.8 °C 1018.8 hPa Calm   3.2 km/h 57% 0 mm WeatherDisplay:10.37 W/m2 SCT
12:45 29.3 °C 19.9 °C 1018.8 hPa Calm   3.2 km/h 57% 0 mm WeatherDisplay:10.37 W/m2 SCT
13:00 30.4 °C 20 °C 1018.5 hPa Calm   3.2 km/h 54% 0 mm WeatherDisplay:10.37 W/m2 SCT
13:15 30.8 °C 19.8 °C 1018.5 hPa Calm   3.2 km/h 52% 0 mm WeatherDisplay:10.37 W/m2 SCT
13:30 30.6 °C 19.3 °C 1018.2 hPa Calm   3.2 km/h 51% 0 mm WeatherDisplay:10.37 W/m2 SCT
13:45 30.9 °C 19.6 °C 1018.2 hPa Calm   4.8 km/h 51% 0 mm WeatherDisplay:10.37 W/m2 SCT
14:00 30.7 °C 19.1 °C 1018.2 hPa Calm   1.6 km/h 50% 0 mm WeatherDisplay:10.37 W/m2 SCT
14:15 30.7 °C 19.4 °C 1017.8 hPa Calm   1.6 km/h 51% 0 mm WeatherDisplay:10.37 W/m2 SCT
14:30 30.3 °C 19.7 °C 1017.8 hPa Calm   3.2 km/h 53% 0 mm WeatherDisplay:10.37 W/m2 SCT
14:45 30.1 °C 20 °C 1017.5 hPa Calm     55% 0 mm WeatherDisplay:10.37 W/m2 SCT
15:00 29.2 °C 20.1 °C 1017.5 hPa Calm   1.6 km/h 58% 0 mm WeatherDisplay:10.37 W/m2 SCT
15:15 29.2 °C 19.5 °C 1017.2 hPa Calm     56% 0 mm WeatherDisplay:10.37 W/m2 SCT
15:30 29.2 °C 19.8 °C 1017.2 hPa Calm     57% 0 mm WeatherDisplay:10.37 W/m2 SCT
15:45 28.8 °C 19.7 °C 1016.8 hPa Calm     58% 0 mm WeatherDisplay:10.37 W/m2 SCT
16:00 28.2 °C 20.2 °C 1016.8 hPa Calm     62% 0 mm WeatherDisplay:10.37 W/m2 SCT
16:15 28.2 °C 20.4 °C 1016.8 hPa Calm     63% 0 mm WeatherDisplay:10.37 W/m2 SCT
16:30 27.7 °C 20.3 °C 1016.5 hPa Calm     64% 0 mm WeatherDisplay:10.37 W/m2 SCT
16:45 27.6 °C 19.9 °C 1016.1 hPa Calm     63% 0 mm WeatherDisplay:10.37 W/m2 SCT
17:00 27.6 °C 20.9 °C 1016.1 hPa Calm     67% 0 mm WeatherDisplay:10.37 W/m2 SCT
17:15 27.6 °C 20.4 °C 1016.1 hPa Calm     65% 0 mm WeatherDisplay:10.37 W/m2 SCT
17:30 27.7 °C 20.4 °C 1016.1 hPa Calm     65% 0 mm WeatherDisplay:10.37 W/m2 SCT
17:45 27.8 °C 20.8 °C 1016.1 hPa Calm     66% 0 mm WeatherDisplay:10.37 W/m2 SCT
18:00 27.8 °C 20.9 °C 1016.1 hPa Calm     66% 0 mm WeatherDisplay:10.37 W/m2 SCT
18:15 27.7 °C 20.3 °C 1016.1 hPa Calm     64% 0 mm WeatherDisplay:10.37 W/m2 SCT
18:30 27.8 °C 20.6 °C 1015.8 hPa Calm     65% 0 mm WeatherDisplay:10.37 W/m2 SCT
18:45 28.3 °C 20.6 °C 1015.8 hPa Calm     63% 0 mm WeatherDisplay:10.37 W/m2 SCT
19:00 28.6 °C 19.5 °C 1015.8 hPa Calm     58% 0 mm WeatherDisplay:10.37 W/m2 SCT
19:15 28.7 °C 18.8 °C 1015.8 hPa Calm   1.6 km/h 55% 0 mm WeatherDisplay:10.37 W/m2 SCT
19:30 28.6 °C 19.2 °C 1015.8 hPa Calm   1.6 km/h 57% 0 mm WeatherDisplay:10.37 W/m2 SCT
19:45 28.3 °C 19 °C 1016.1 hPa Calm     57% 0 mm WeatherDisplay:10.37 W/m2 SCT
20:00 28.1 °C 19.1 °C 1016.1 hPa Calm   1.6 km/h 58% 0 mm WeatherDisplay:10.37 W/m2 SCT
20:15 27.9 °C 18.9 °C 1016.5 hPa Calm     58% 0 mm WeatherDisplay:10.37 W/m2 SCT
20:30 27.6 °C 18.8 °C 1016.5 hPa Calm     59% 0 mm WeatherDisplay:10.37 W/m2 SCT
20:45 27.2 °C 18.4 °C 1016.5 hPa Calm     59% 0 mm WeatherDisplay:10.37 W/m2 SCT
21:00 26.6 °C 18.4 °C 1016.8 hPa Calm     61% 0 mm WeatherDisplay:10.37 W/m2 SCT
21:15 26.2 °C 18.3 °C 1016.8 hPa Calm     62% 0 mm WeatherDisplay:10.37 W/m2 SCT
21:30 26 °C 18.2 °C 1016.8 hPa Calm     62% 0 mm WeatherDisplay:10.37 W/m2 SCT
21:45 25.8 °C 17.9 °C 1016.8 hPa Calm     62% 0 mm WeatherDisplay:10.37 W/m2 SCT
22:00 25.5 °C 17.9 °C 1017.2 hPa Calm     63% 0 mm WeatherDisplay:10.37 W/m2 SCT
22:15 25.2 °C 18.1 °C 1017.5 hPa Calm     65% 0 mm WeatherDisplay:10.37 W/m2 SCT
22:30 25.1 °C 18.3 °C 1017.5 hPa Calm     66% 0 mm WeatherDisplay:10.37 W/m2 SCT
22:45 24.9 °C 18.3 °C 1017.8 hPa Calm     67% 0 mm WeatherDisplay:10.37 W/m2 SCT
23:00 24.8 °C 18.2 °C 1017.8 hPa Calm     67% 0 mm WeatherDisplay:10.37 W/m2 SCT
23:15 24.5 °C 18.2 °C 1018.2 hPa Calm     68% 0 mm WeatherDisplay:10.37 W/m2 SCT
23:30 24.2 °C 18.2 °C 1018.2 hPa Calm     69% 0 mm WeatherDisplay:10.37 W/m2 SCT
23:45 23.9 °C 18.1 °C 1018.2 hPa Calm     70% 0 mm WeatherDisplay:10.37 W/m2 SCT
Piedmont Bend
Compliments of Weather Underground - 4 mb